Time;durP1;ratioP1;P1;durP2;ratioP2;P2;SDS_P1;SDS_P2;PMS_P1;PMS_P2;Temp;Humidity;BMP_temperature;BMP_pressure;BME280_temperature;BME280_humidity;BME280_pressure;Samples;Min_cycle;Max_cycle;Signal;HPM_P1;HPM_P2
2022/09/15 00:02:45;;;;;;;16.95;12.10;;;;;;;16.36;85.94;98872.92;2160231;82;31406;-66
2022/09/15 00:05:48;;;;;;;15.93;12.03;;;;;;;16.34;85.93;98861.40;2159833;82;33809;-66
2022/09/15 00:08:50;;;;;;;14.87;12.13;;;;;;;16.32;85.86;98868.80;2159889;82;31153;-66
2022/09/15 00:11:51;;;;;;;15.85;11.93;;;;;;;16.31;85.93;98863.05;2190191;80;27663;-67
2022/09/15 00:14:54;;;;;;;18.82;11.33;;;;;;;16.28;85.99;98857.97;2206704;80;28686;-67
2022/09/15 00:17:55;;;;;;;11.78;10.03;;;;;;;16.27;86.10;98855.39;2206657;80;31451;-67
2022/09/15 00:20:57;;;;;;;16.48;11.68;;;;;;;16.27;86.14;98855.39;2206449;80;33678;-66
2022/09/15 00:24:01;;;;;;;12.47;11.18;;;;;;;16.25;86.23;98851.50;2206485;80;29392;-64
2022/09/15 00:27:03;;;;;;;12.90;11.40;;;;;;;16.24;86.32;98831.72;2207148;80;27680;-66
2022/09/15 00:30:07;;;;;;;12.95;11.12;;;;;;;16.22;86.30;98832.88;2206571;80;28645;-65
2022/09/15 00:33:08;;;;;;;14.05;12.40;;;;;;;16.20;86.44;98837.57;2206635;80;31062;-65
2022/09/15 00:36:11;;;;;;;13.65;11.18;;;;;;;16.18;86.49;98826.92;2206637;80;33325;-65
2022/09/15 00:39:13;;;;;;;15.95;12.75;;;;;;;16.15;86.52;98826.34;2206608;80;29804;-63
2022/09/15 00:42:18;;;;;;;14.07;12.33;;;;;;;16.11;86.59;98825.80;2205812;80;27676;-66
2022/09/15 00:45:19;;;;;;;16.25;12.03;;;;;;;16.08;86.73;98816.16;2206882;80;29264;-64
2022/09/15 00:48:21;;;;;;;15.48;13.58;;;;;;;16.04;86.87;98808.50;2206640;80;32151;-64
2022/09/15 00:51:28;;;;;;;19.50;13.18;;;;;;;16.00;86.94;98814.68;2184609;80;33075;-65
2022/09/15 00:54:44;;;;;;;14.25;12.75;;;;;;;15.99;87.12;98818.38;2206743;80;29925;-65
2022/09/15 00:57:54;;;;;;;15.80;13.43;;;;;;;16.00;87.23;98824.65;2191901;80;27739;-65
2022/09/15 01:00:59;;;;;;;18.27;13.50;;;;;;;16.00;87.31;98832.75;2181500;81;29082;-65
2022/09/15 01:04:01;;;;;;;15.88;14.18;;;;;;;15.97;87.18;98839.28;2181415;81;32237;-65
2022/09/15 01:07:05;;;;;;;17.75;13.28;;;;;;;15.95;87.14;98833.20;2162220;81;32952;-66
2022/09/15 01:10:27;;;;;;;19.12;14.73;;;;;;;15.92;87.21;98827.58;2162044;81;29391;-66
2022/09/15 01:13:28;;;;;;;21.77;14.53;;;;;;;15.91;87.25;98825.03;2143678;82;27846;-65
2022/09/15 01:16:44;;;;;;;18.12;14.63;;;;;;;15.88;87.19;98823.97;2143888;83;29051;-63
2022/09/15 01:20:23;;;;;;;17.27;14.00;;;;;;;15.87;87.26;98830.37;2151244;81;31637;-66
2022/09/15 01:24:16;;;;;;;20.27;15.15;;;;;;;15.88;87.44;98836.13;2181248;81;34184;-65
2022/09/15 01:27:47;;;;;;;18.80;14.38;;;;;;;15.87;87.45;98829.89;2181318;81;30178;-66
2022/09/15 01:31:02;;;;;;;17.12;14.90;;;;;;;15.88;87.61;98827.55;2181266;81;27890;-65
2022/09/15 01:34:14;;;;;;;22.02;15.10;;;;;;;15.90;87.66;98831.44;2182515;81;28093;-64
2022/09/15 01:37:19;;;;;;;23.85;15.05;;;;;;;15.89;87.82;98819.77;2162260;81;31475;-64
2022/09/15 01:40:22;;;;;;;22.20;16.05;;;;;;;15.91;87.89;98812.37;2179886;81;32953;-65
2022/09/15 01:43:25;;;;;;;20.90;17.75;;;;;;;15.91;87.67;98815.06;2163795;81;29808;-66
2022/09/15 01:46:31;;;;;;;21.95;16.02;;;;;;;15.90;87.75;98824.68;2158188;82;28298;-65
2022/09/15 01:49:52;;;;;;;23.47;16.25;;;;;;;15.91;87.86;98819.63;2154442;82;28687;-65
2022/09/15 01:52:56;;;;;;;18.23;15.83;;;;;;;15.93;87.95;98827.09;2158151;81;31009;-65
2022/09/15 01:56:04;;;;;;;22.93;16.15;;;;;;;15.93;87.91;98831.98;2154156;82;34002;-65
2022/09/15 01:59:05;;;;;;;26.00;18.27;;;;;;;15.93;88.00;98833.33;2153741;82;29032;-65
2022/09/15 02:02:11;;;;;;;27.70;17.37;;;;;;;15.93;87.94;98828.44;2158482;82;27677;-66
2022/09/15 02:05:24;;;;;;;27.62;19.70;;;;;;;15.95;88.00;98834.03;2159373;82;29259;-65
2022/09/15 02:08:43;;;;;;;26.50;20.27;;;;;;;15.95;87.94;98827.80;2159299;82;31405;-64
2022/09/15 02:12:06;;;;;;;25.40;19.55;;;;;;;15.92;87.99;98824.88;2183073;80;34172;-65
2022/09/15 02:15:22;;;;;;;24.55;21.30;;;;;;;15.92;87.94;98830.79;2206218;80;29857;-63
2022/09/15 02:18:33;;;;;;;24.87;20.50;;;;;;;15.89;87.97;98829.21;2199503;80;27741;-66
2022/09/15 02:22:09;;;;;;;27.37;21.30;;;;;;;15.90;88.05;98835.48;2206284;80;30028;-66
2022/09/15 02:25:17;;;;;;;33.58;21.95;;;;;;;15.90;88.07;98843.58;2206712;80;31401;-63
2022/09/15 02:28:22;;;;;;;27.80;21.73;;;;;;;15.89;88.03;98842.72;2205022;80;32950;-63
2022/09/15 02:31:26;;;;;;;32.40;22.30;;;;;;;15.88;88.05;98845.09;2183483;80;54008;-65
2022/09/15 02:34:36;;;;;;;29.40;22.73;;;;;;;15.87;88.04;98846.09;2205823;80;27638;-65
2022/09/15 02:37:37;;;;;;;28.38;23.25;;;;;;;15.86;88.10;98847.56;2205070;80;28415;-64
2022/09/15 02:40:42;;;;;;;30.10;22.85;;;;;;;15.84;88.05;98857.14;2199548;80;31024;-65
2022/09/15 02:43:48;;;;;;;26.93;21.15;;;;;;;15.84;88.06;98850.87;2160066;82;33562;-66
2022/09/15 02:46:50;;;;;;;33.88;23.77;;;;;;;15.84;88.25;98847.70;2160134;82;29399;-65
2022/09/15 02:49:51;;;;;;;28.70;22.42;;;;;;;15.82;88.16;98855.09;2160136;82;27710;-65
2022/09/15 02:52:55;;;;;;;31.20;23.70;;;;;;;15.84;88.26;98854.93;2159540;82;28737;-65
2022/09/15 02:55:56;;;;;;;30.48;24.47;;;;;;;15.82;88.20;98842.94;2160436;81;31485;-66
2022/09/15 02:58:58;;;;;;;28.52;23.87;;;;;;;15.82;88.20;98843.42;2160375;82;34200;-67
2022/09/15 03:01:59;;;;;;;28.75;22.80;;;;;;;15.79;88.14;98858.94;2159840;82;29460;-66
2022/09/15 03:05:00;;;;;;;32.58;22.82;;;;;;;15.77;88.12;98850.61;2159809;82;27679;-66
2022/09/15 03:08:02;;;;;;;24.57;18.67;;;;;;;15.72;87.78;98847.52;2160170;82;29811;-66
2022/09/15 03:11:03;;;;;;;20.32;14.78;;;;;;;15.67;87.81;98844.39;2165517;81;31965;-67
2022/09/15 03:14:05;;;;;;;15.25;11.28;;;;;;;15.59;87.25;98850.52;2181175;81;34092;-65
2022/09/15 03:17:06;;;;;;;13.15;8.55;;;;;;;15.48;86.97;98856.91;2204984;80;29014;-65
2022/09/15 03:20:11;;;;;;;17.52;8.50;;;;;;;15.37;86.76;98851.68;2206720;80;27689;-66
2022/09/15 03:23:12;;;;;;;;;;;;;;;15.25;86.51;98861.76;2209482;80;28676;-65
2022/09/15 03:26:14;;;;;;;14.28;6.85;;;;;;;15.14;86.59;98861.40;2206757;80;31477;-66
2022/09/15 03:29:15;;;;;;;16.85;7.62;;;;;;;15.05;86.72;98872.53;2206854;80;33354;-65
2022/09/15 03:32:17;;;;;;;15.70;7.78;;;;;;;15.01;86.93;98883.23;2206772;80;30126;-65
2022/09/15 03:35:18;;;;;;;13.15;6.72;;;;;;;14.98;87.06;98886.21;2207244;80;27568;-65
2022/09/15 03:38:21;;;;;;;13.83;7.25;;;;;;;14.94;87.01;98887.50;2206775;80;29026;-65
2022/09/15 03:41:22;;;;;;;15.68;7.10;;;;;;;14.78;86.97;98867.80;2166200;80;31349;-64
2022/09/15 03:44:23;;;;;;;14.03;6.90;;;;;;;14.87;87.02;98898.83;2159876;82;34090;-63
2022/09/15 03:47:24;;;;;;;17.17;6.28;;;;;;;14.84;86.91;98903.66;2159215;82;30423;-64
2022/09/15 03:50:26;;;;;;;18.37;7.25;;;;;;;14.80;86.94;98897.70;2159646;82;27692;-63
2022/09/15 03:53:27;;;;;;;13.13;6.80;;;;;;;14.77;86.96;98900.66;2160375;82;29849;-65
2022/09/15 03:56:31;;;;;;;10.28;7.60;;;;;;;14.77;87.16;98922.23;2132531;82;32187;-62
2022/09/15 03:59:33;;;;;;;33.10;8.35;;;;;;;14.79;87.22;98933.73;2154342;82;34089;-64
2022/09/15 04:02:34;;;;;;;14.18;6.72;;;;;;;14.75;87.38;98937.69;2156015;82;29204;-65
2022/09/15 04:05:35;;;;;;;14.03;6.72;;;;;;;14.72;87.18;98942.87;2160006;82;27837;-65
2022/09/15 04:08:36;;;;;;;13.75;6.80;;;;;;;14.71;87.46;98927.69;2159959;82;28742;-66
2022/09/15 04:11:38;;;;;;;16.65;5.85;;;;;;;14.70;86.94;98927.33;2190572;80;32112;-65
2022/09/15 04:14:40;;;;;;;13.13;6.30;;;;;;;14.70;86.94;98927.33;2206730;80;33427;-66
2022/09/15 04:17:41;;;;;;;15.50;7.00;;;;;;;14.68;87.06;98925.25;2206508;80;28849;-66
2022/09/15 04:20:42;;;;;;;12.18;6.83;;;;;;;14.67;87.19;98925.34;2206927;80;27613;-65
2022/09/15 04:23:44;;;;;;;13.68;6.55;;;;;;;14.66;87.02;98936.63;2206416;80;29923;-65
2022/09/15 04:26:45;;;;;;;18.73;6.83;;;;;;;14.64;87.09;98941.81;2206705;80;31399;-67
2022/09/15 04:29:52;;;;;;;10.82;6.75;;;;;;;14.63;87.29;98946.33;2206809;80;33087;-67
2022/09/15 04:32:53;;;;;;;13.53;7.03;;;;;;;14.64;87.32;98951.24;2206397;80;30304;-66
2022/09/15 04:36:07;;;;;;;15.13;7.28;;;;;;;14.57;87.46;98942.34;2206566;80;27739;-64
2022/09/15 04:39:08;;;;;;;13.30;7.87;;;;;;;14.62;87.74;98936.53;2203056;80;28640;-62
2022/09/15 04:42:09;;;;;;;16.00;6.45;;;;;;;14.56;87.55;98932.55;2161838;80;31021;-65
2022/09/15 04:45:11;;;;;;;14.58;6.85;;;;;;;14.64;87.64;98953.94;2197470;80;33352;-66
2022/09/15 04:48:12;;;;;;;19.80;6.47;;;;;;;14.63;87.63;98953.58;2206831;80;28968;-65
2022/09/15 04:51:17;;;;;;;15.08;6.42;;;;;;;14.60;87.42;98953.34;2206831;80;27709;-64
2022/09/15 04:54:18;;;;;;;;;;;;;;;14.61;87.57;98951.51;2209198;80;29116;-63
2022/09/15 04:57:22;;;;;;;12.37;7.25;;;;;;;14.59;87.57;98951.63;2206682;80;31855;-65
2022/09/15 05:00:26;;;;;;;17.52;6.70;;;;;;;14.55;87.46;98957.79;2182540;80;35277;-65
2022/09/15 05:03:28;;;;;;;20.97;6.25;;;;;;;14.52;87.41;98967.48;2181153;81;33189;-65
2022/09/15 05:06:30;;;;;;;20.08;7.55;;;;;;;14.51;87.47;98972.52;2181715;81;27987;-65
2022/09/15 05:09:31;;;;;;;21.20;9.65;;;;;;;14.53;87.65;98979.14;2171841;81;28894;-63
2022/09/15 05:12:33;;;;;;;24.92;9.55;;;;;;;14.53;87.74;98984.02;2151603;81;31112;-66
2022/09/15 05:15:34;;;;;;;24.80;12.10;;;;;;;14.54;87.86;98984.38;2154085;81;34094;-64
2022/09/15 05:18:35;;;;;;;25.55;12.23;;;;;;;14.57;87.91;98969.77;2153568;82;29018;-64
2022/09/15 05:21:37;;;;;;;19.48;11.18;;;;;;;14.57;87.83;98957.64;2154161;81;27572;-65
2022/09/15 05:24:39;;;;;;;17.60;11.18;;;;;;;14.57;87.83;98957.64;2174873;81;29147;-64
2022/09/15 05:27:40;;;;;;;20.77;10.98;;;;;;;14.64;87.88;98975.50;2183785;81;32313;-63
2022/09/15 05:30:41;;;;;;;17.85;10.50;;;;;;;14.65;87.80;98968.61;2184701;81;33043;-64
2022/09/15 05:33:43;;;;;;;19.12;11.22;;;;;;;14.66;87.67;98975.72;2185097;81;29973;-64
2022/09/15 05:36:45;;;;;;;21.02;10.32;;;;;;;14.70;87.82;98981.72;2184511;81;27576;-65
2022/09/15 05:39:46;;;;;;;19.55;11.08;;;;;;;14.74;87.94;98987.20;2184337;81;29191;-63
2022/09/15 05:42:48;;;;;;;15.65;10.10;;;;;;;14.79;87.96;98989.48;2184526;80;31369;-64
2022/09/15 05:45:55;;;;;;;15.58;10.45;;;;;;;14.83;87.93;98998.50;2184188;81;32389;-64
2022/09/15 05:48:57;;;;;;;31.42;12.23;;;;;;;14.88;88.18;98998.12;2184165;81;29388;-64
2022/09/15 05:51:59;;;;;;;27.25;13.18;;;;;;;14.96;88.47;98996.09;2184080;80;27687;-64
2022/09/15 05:55:00;;;;;;;20.40;11.40;;;;;;;15.03;88.32;98999.45;2158572;82;29244;-65
2022/09/15 05:58:04;;;;;;;19.60;10.82;;;;;;;15.09;88.06;98995.34;2153728;82;32310;-67
2022/09/15 06:01:14;;;;;;;18.20;11.53;;;;;;;15.17;88.10;99008.14;2154270;82;32978;-64
2022/09/15 06:04:16;;;;;;;19.92;10.43;;;;;;;15.24;88.13;99000.34;2155911;82;29418;-64
2022/09/15 06:07:18;;;;;;;18.57;10.78;;;;;;;15.30;88.09;99003.85;2160272;82;27494;-65
2022/09/15 06:10:23;;;;;;;25.17;11.50;;;;;;;15.39;88.22;99005.70;2159391;82;29990;-64
2022/09/15 06:13:25;;;;;;;23.60;12.50;;;;;;;15.52;88.35;98996.48;2160073;82;31779;-63
2022/09/15 06:16:26;;;;;;;16.32;11.65;;;;;;;15.75;88.80;99003.80;2160220;82;33649;-64
2022/09/15 06:19:28;;;;;;;22.87;12.85;;;;;;;16.01;88.73;99005.98;2160447;82;29382;-64
2022/09/15 06:22:29;;;;;;;18.37;12.80;;;;;;;16.20;88.08;99006.45;2167274;80;27681;-64
2022/09/15 06:25:30;;;;;;;20.48;12.78;;;;;;;16.33;87.71;99002.09;2206581;80;28733;-64
2022/09/15 06:28:34;;;;;;;20.02;13.00;;;;;;;16.44;87.55;98998.38;2206323;80;31415;-66
2022/09/15 06:31:35;;;;;;;21.02;12.15;;;;;;;16.53;87.23;99009.66;2206026;80;34227;-65
2022/09/15 06:34:37;;;;;;;20.72;12.30;;;;;;;16.53;86.55;99009.66;2206470;80;29442;-64
2022/09/15 06:37:38;;;;;;;24.65;12.58;;;;;;;16.56;86.45;99008.02;2206629;80;27558;-64
2022/09/15 06:40:39;;;;;;;14.23;9.93;;;;;;;16.58;86.26;99015.48;2206460;80;28990;-65
2022/09/15 06:43:41;;;;;;;16.67;9.40;;;;;;;16.65;86.11;99015.23;2206594;80;31027;-65
2022/09/15 06:46:42;;;;;;;16.05;9.45;;;;;;;16.83;86.40;99015.33;2206096;80;33402;-65
2022/09/15 06:49:44;;;;;;;13.25;7.80;;;;;;;17.03;86.38;99004.45;2206484;80;29538;-64
2022/09/15 06:52:45;;;;;;;12.90;7.50;;;;;;;17.16;85.41;99009.02;2194783;80;28037;-65
2022/09/15 06:55:47;;;;;;;12.82;6.90;;;;;;;17.32;85.35;99010.20;2160390;80;28935;-63
2022/09/15 06:58:53;;;;;;;11.35;7.55;;;;;;;17.52;84.83;99017.69;2135287;82;31118;-64
2022/09/15 07:01:57;;;;;;;12.03;6.72;;;;;;;17.67;84.32;99017.16;2159229;82;29525;-64
2022/09/15 07:04:59;;;;;;;15.45;6.37;;;;;;;17.73;83.95;99019.27;2159835;82;30049;-65
2022/09/15 07:08:02;;;;;;;10.48;6.05;;;;;;;17.76;83.86;99018.44;2159989;82;27681;-64
2022/09/15 07:11:05;;;;;;;10.40;5.53;;;;;;;17.83;83.46;99025.96;2160214;82;29862;-64
2022/09/15 07:14:07;;;;;;;11.78;4.87;;;;;;;17.86;83.44;99022.95;2160177;82;31178;-64
2022/09/15 07:17:08;;;;;;;10.32;5.08;;;;;;;18.04;83.48;99032.45;2159842;82;33950;-64
2022/09/15 07:20:09;;;;;;;11.50;5.15;;;;;;;18.27;83.47;99040.10;2160299;82;29681;-65
2022/09/15 07:23:10;;;;;;;9.50;4.65;;;;;;;18.45;83.09;99034.63;2161558;81;27678;-65
2022/09/15 07:26:26;;;;;;;13.08;4.65;;;;;;;18.62;82.10;99042.36;2150778;82;28732;-64
2022/09/15 07:29:27;;;;;;;11.97;5.12;;;;;;;18.86;81.86;99045.77;2152990;82;31077;-64
2022/09/15 07:32:29;;;;;;;10.82;5.10;;;;;;;19.13;81.84;99052.03;2153958;82;34144;-65
2022/09/15 07:35:30;;;;;;;11.12;4.75;;;;;;;19.24;80.92;99047.66;2154041;82;29445;-65
2022/09/15 07:38:41;;;;;;;12.53;4.28;;;;;;;19.49;81.09;99053.19;2154129;82;27714;-66
2022/09/15 07:41:43;;;;;;;8.60;4.75;;;;;;;19.72;80.64;99050.70;2154113;82;28641;-64
2022/09/15 07:44:44;;;;;;;11.35;3.92;;;;;;;19.97;79.53;99055.36;2153931;82;32196;-65
2022/09/15 07:47:45;;;;;;;10.78;3.77;;;;;;;20.06;79.10;99067.09;2153674;82;34136;-65
2022/09/15 07:50:47;;;;;;;9.75;3.67;;;;;;;20.16;78.84;99071.36;2153884;82;30472;-66
2022/09/15 07:53:49;;;;;;;7.42;3.58;;;;;;;20.34;78.50;99077.16;2170462;81;28287;-66
2022/09/15 07:56:50;;;;;;;8.68;3.47;;;;;;;20.44;77.56;99091.42;2196794;80;28663;-64
2022/09/15 07:59:53;;;;;;;9.33;4.30;;;;;;;20.45;76.66;99091.77;2196436;80;30917;-65
2022/09/15 08:02:55;;;;;;;11.70;4.60;;;;;;;20.39;76.40;99100.59;2150185;82;34199;-63
2022/09/15 08:06:02;;;;;;;10.15;4.00;;;;;;;20.39;75.97;99099.75;2150183;82;30553;-65
2022/09/15 08:09:03;;;;;;;7.62;3.83;;;;;;;20.32;75.79;99101.78;2150097;82;27770;-64
2022/09/15 08:12:07;;;;;;;10.40;4.15;;;;;;;20.27;75.09;99108.23;2150148;82;29505;-63
2022/09/15 08:15:09;;;;;;;8.53;3.40;;;;;;;20.09;74.18;99117.91;2150524;82;32103;-63
2022/09/15 08:18:10;;;;;;;8.75;3.85;;;;;;;19.94;74.48;99116.33;2150255;82;33055;-63
2022/09/15 08:21:16;;;;;;;11.12;3.75;;;;;;;20.10;74.99;99116.89;2150589;82;29730;-62
2022/09/15 08:24:17;;;;;;;9.13;3.50;;;;;;;20.38;74.79;99113.84;2102584;82;27712;-62
2022/09/15 08:27:18;;;;;;;10.60;3.60;;;;;;;20.79;75.28;99121.19;2106773;82;29182;-61
2022/09/15 08:30:20;;;;;;;10.03;3.50;;;;;;;21.12;74.84;99115.68;2084264;83;31478;-63
2022/09/15 08:33:22;;;;;;;8.18;3.83;;;;;;;21.31;73.90;99113.09;2101751;84;33328;-64
2022/09/15 08:36:26;;;;;;;8.48;2.90;;;;;;;21.48;73.43;99108.42;2113972;84;30488;-62
2022/09/15 08:39:27;;;;;;;7.15;3.40;;;;;;;21.54;73.01;99104.13;2114021;84;27826;-65
2022/09/15 08:42:29;;;;;;;10.35;3.40;;;;;;;21.55;71.94;99106.70;2113971;84;28796;-64
2022/09/15 08:45:40;;;;;;;8.15;2.70;;;;;;;21.72;72.25;99109.87;2133203;82;31083;-63
2022/09/15 08:49:09;;;;;;;9.40;2.98;;;;;;;21.76;71.48;99101.16;2113410;84;32970;-66
2022/09/15 08:52:19;;;;;;;10.20;3.10;;;;;;;21.69;70.60;99098.30;2047026;86;30413;-66
2022/09/15 08:55:38;;;;;;;10.13;3.52;;;;;;;21.58;69.87;99097.31;1949549;90;27754;-64
2022/09/15 08:58:39;;;;;;;6.85;3.00;;;;;;;21.59;69.81;99091.36;1949312;91;28880;-65
2022/09/15 09:02:13;;;;;;;9.98;2.98;;;;;;;21.55;69.56;99077.22;1951227;90;31496;-66
2022/09/15 09:05:50;;;;;;;6.72;2.98;;;;;;;21.51;68.80;99073.17;1923993;92;33410;-65
2022/09/15 09:09:20;;;;;;;9.58;2.72;;;;;;;21.67;69.82;99074.98;1872662;91;30569;-64
2022/09/15 09:12:42;;;;;;;3.90;2.22;;;;;;;21.72;67.83;99070.35;1867218;95;27689;-64
2022/09/15 09:16:11;;;;;;;8.08;2.67;;;;;;;21.59;67.52;99063.58;1916776;92;29312;-64
2022/09/15 09:19:45;;;;;;;8.78;2.65;;;;;;;21.54;67.60;99068.20;1916873;92;32316;-64
2022/09/15 09:22:49;;;;;;;10.05;2.92;;;;;;;21.54;67.74;99070.06;1954109;91;33359;-62
2022/09/15 09:25:51;;;;;;;7.13;2.37;;;;;;;21.72;68.64;99070.35;1966891;89;29242;-64
2022/09/15 09:28:59;;;;;;;10.38;2.67;;;;;;;21.95;67.92;99067.66;1992417;87;27741;-64
2022/09/15 09:32:01;;;;;;;11.40;3.12;;;;;;;21.98;67.34;99055.02;2071897;82;29352;-64
2022/09/15 09:35:26;;;;;;;8.53;2.72;;;;;;;22.03;67.55;99061.29;2168027;82;31018;-64
2022/09/15 09:38:37;;;;;;;5.50;2.33;;;;;;;22.12;66.50;99065.14;2168169;81;33342;-64
2022/09/15 09:41:42;;;;;;;6.28;2.40;;;;;;;22.21;66.39;99055.02;2168169;82;29335;-65
2022/09/15 09:44:45;;;;;;;5.92;2.27;;;;;;;22.25;66.61;99053.63;2167896;81;28298;-64
2022/09/15 09:47:46;;;;;;;7.62;2.60;;;;;;;22.34;66.32;99062.59;2168186;82;28663;-64
2022/09/15 09:50:49;;;;;;;6.17;3.00;;;;;;;22.35;65.06;99071.61;2168182;81;31473;-64
2022/09/15 09:53:53;;;;;;;11.50;2.70;;;;;;;22.20;64.45;99066.95;2168109;82;33332;-65
2022/09/15 09:57:18;;;;;;;9.88;3.12;;;;;;;22.10;64.47;99066.36;2167960;82;29720;-65
2022/09/15 10:00:34;;;;;;;;;;;;;;;22.10;64.71;99078.64;2161303;82;27708;-64
2022/09/15 10:03:37;;;;;;;7.05;2.10;;;;;;;22.15;63.88;99085.77;2142034;82;29991;-63
2022/09/15 10:06:39;;;;;;;6.75;2.33;;;;;;;22.24;64.15;99069.66;2143267;83;31463;-63
2022/09/15 10:09:59;;;;;;;6.75;3.10;;;;;;;22.45;64.26;99065.44;2143601;83;33364;-64
2022/09/15 10:13:02;;;;;;;8.85;2.77;;;;;;;22.68;64.30;99065.39;2143452;83;29990;-64
2022/09/15 10:16:05;;;;;;;6.30;2.60;;;;;;;22.90;63.77;99066.89;2143379;83;28230;-63
2022/09/15 10:19:12;;;;;;;6.15;2.70;;;;;;;22.97;63.20;99058.27;2143900;82;29019;-63
2022/09/15 10:22:33;;;;;;;5.65;2.40;;;;;;;23.04;63.15;99059.22;2144321;82;31030;-62
2022/09/15 10:25:36;;;;;;;7.25;2.62;;;;;;;23.19;62.35;99053.73;2147254;82;33336;-64
2022/09/15 10:28:38;;;;;;;8.85;2.35;;;;;;;23.30;62.04;99049.72;2147572;82;29314;-63
2022/09/15 10:31:42;;;;;;;5.58;2.27;;;;;;;23.38;62.03;99043.83;2195330;80;27666;-62
2022/09/15 10:34:44;;;;;;;9.60;2.85;;;;;;;23.35;61.53;99047.77;2124049;83;28645;-65
2022/09/15 10:38:15;;;;;;;7.37;3.15;;;;;;;23.17;61.01;99051.70;2124111;83;32189;-63
2022/09/15 10:41:29;;;;;;;8.75;2.10;;;;;;;22.97;60.75;99058.27;2112707;83;32962;-62
2022/09/15 10:44:47;;;;;;;11.38;2.83;;;;;;;22.77;60.77;99063.44;2109694;84;29425;-63
2022/09/15 10:48:40;;;;;;;7.10;2.30;;;;;;;22.57;60.62;99057.13;2108598;84;27553;-64
2022/09/15 10:51:59;;;;;;;6.80;2.98;;;;;;;22.38;61.01;99052.16;2109897;84;29859;-63
2022/09/15 10:55:17;;;;;;;4.80;2.45;;;;;;;22.12;60.58;99056.95;2110014;84;31411;-64
2022/09/15 10:58:41;;;;;;;4.10;2.10;;;;;;;21.92;60.53;99064.78;2109360;84;34135;-64
2022/09/15 11:02:18;;;;;;;9.68;2.98;;;;;;;21.75;60.34;99065.41;2109752;83;29744;-64
2022/09/15 11:05:40;;;;;;;7.78;2.58;;;;;;;21.63;60.81;99059.51;2109946;84;27753;-63
2022/09/15 11:09:14;;;;;;;6.00;3.00;;;;;;;21.57;60.71;99057.98;2109883;84;28751;-66
2022/09/15 11:12:45;;;;;;;7.85;3.12;;;;;;;21.54;61.22;99055.95;2109913;84;31106;-65
2022/09/15 11:16:05;;;;;;;8.85;2.67;;;;;;;21.58;61.46;99057.79;2088450;82;34108;-63
2022/09/15 11:19:44;;;;;;;7.85;2.83;;;;;;;21.59;61.08;99051.31;2091073;84;29383;-64
2022/09/15 11:22:54;;;;;;;9.68;2.77;;;;;;;21.64;61.27;99045.35;2094841;83;27741;-64
2022/09/15 11:26:10;;;;;;;10.35;3.00;;;;;;;21.73;61.46;99052.47;2097916;84;28647;-65
2022/09/15 11:29:29;;;;;;;8.05;3.15;;;;;;;21.83;60.76;99044.90;2080226;84;31814;-65
2022/09/15 11:32:57;;;;;;;6.72;2.37;;;;;;;21.94;60.97;99036.82;2025063;85;32989;-65
2022/09/15 11:36:15;;;;;;;14.93;2.85;;;;;;;21.98;60.39;99036.80;2031498;85;29710;-64
2022/09/15 11:39:27;;;;;;;5.70;2.75;;;;;;;22.00;60.44;99036.11;2125295;82;27762;-63
2022/09/15 11:42:40;;;;;;;6.47;2.42;;;;;;;22.04;60.05;99030.27;2115929;82;29672;-67
2022/09/15 11:45:47;;;;;;;8.45;2.50;;;;;;;22.06;59.37;99029.56;2137774;82;32216;-65
2022/09/15 11:48:56;;;;;;;10.40;2.70;;;;;;;22.08;59.37;99024.78;2093907;83;32974;-65
2022/09/15 11:52:15;;;;;;;7.40;2.67;;;;;;;22.15;59.45;99025.23;2113122;82;29358;-65
2022/09/15 11:55:43;;;;;;;11.10;2.90;;;;;;;22.22;59.14;99021.25;2115191;82;27749;-64
2022/09/15 11:59:02;;;;;;;9.03;3.20;;;;;;;22.34;59.00;99026.29;2110499;82;29889;-64
2022/09/15 12:02:26;;;;;;;8.33;2.95;;;;;;;22.37;59.11;99021.80;2111708;82;31847;-64
2022/09/15 12:05:48;;;;;;;7.47;2.62;;;;;;;22.44;59.44;99018.72;2067611;85;34168;-63
2022/09/15 12:09:01;;;;;;;6.03;2.67;;;;;;;22.48;58.83;99017.31;2093209;82;29470;-65
2022/09/15 12:12:09;;;;;;;5.15;2.40;;;;;;;22.46;58.46;99016.66;2181439;80;27780;-62
2022/09/15 12:15:26;;;;;;;8.20;2.65;;;;;;;22.50;58.51;99017.12;2190580;80;28668;-64
2022/09/15 12:18:37;;;;;;;7.83;2.60;;;;;;;22.50;58.36;99016.62;2204341;80;31820;-64
2022/09/15 12:22:01;;;;;;;6.22;2.47;;;;;;;22.51;58.23;99014.19;2167083;80;32762;-66
2022/09/15 12:25:17;;;;;;;5.45;2.80;;;;;;;22.49;57.86;99014.06;2133268;82;30110;-63
2022/09/15 12:28:25;;;;;;;;;;;;;;;22.52;58.09;99005.50;2103174;83;27687;-66
2022/09/15 12:31:39;;;;;;;6.80;2.33;;;;;;;22.51;58.20;99001.08;2144010;82;28848;-64
2022/09/15 12:34:58;;;;;;;5.10;2.30;;;;;;;22.50;58.08;99000.74;2123267;83;31667;-63
2022/09/15 12:38:00;;;;;;;4.80;2.60;;;;;;;22.44;57.69;98998.25;2108343;83;34302;-65
2022/09/15 12:41:02;;;;;;;7.65;2.60;;;;;;;22.38;57.45;98997.58;2134134;82;29310;-64
2022/09/15 12:44:16;;;;;;;8.95;3.12;;;;;;;22.34;57.98;98995.75;2115184;82;27687;-65
2022/09/15 12:47:32;;;;;;;9.03;2.65;;;;;;;22.29;57.51;98994.08;2152797;82;28661;-63
2022/09/15 12:50:36;;;;;;;6.10;2.30;;;;;;;22.22;57.70;98993.97;2148225;82;31889;-62
2022/09/15 12:54:01;;;;;;;9.28;2.90;;;;;;;22.15;58.00;98993.86;2189479;80;32962;-65
2022/09/15 12:57:04;;;;;;;6.85;2.22;;;;;;;22.13;58.16;98986.91;2136547;81;29965;-65
2022/09/15 13:00:31;;;;;;;7.05;2.83;;;;;;;22.04;58.14;98991.58;2204232;80;28140;-65
2022/09/15 13:03:41;;;;;;;8.75;2.60;;;;;;;22.01;58.40;98992.78;2130755;81;30098;-65
2022/09/15 13:06:48;;;;;;;7.95;3.30;;;;;;;21.93;58.21;98980.59;2129757;80;31136;-66
2022/09/15 13:10:11;;;;;;;8.43;3.52;;;;;;;21.85;58.29;98986.09;2116818;81;33887;-65
2022/09/15 13:13:30;;;;;;;10.23;3.42;;;;;;;21.78;58.21;98989.22;2121319;80;30506;-66
2022/09/15 13:16:58;;;;;;;9.98;3.15;;;;;;;21.72;58.42;98984.48;2138123;81;27947;-66
2022/09/15 13:20:05;;;;;;;8.53;3.75;;;;;;;21.65;58.36;98981.64;2149540;81;30093;-66
2022/09/15 13:23:07;;;;;;;7.25;3.27;;;;;;;;;;2142346;80;30367;-66
2022/09/15 13:26:14;;;;;;;5.05;2.92;;;;;;;21.55;58.26;98992.23;2133777;81;32797;-65
2022/09/15 13:29:16;;;;;;;8.08;3.10;;;;;;;21.55;58.50;98987.29;2153258;81;29328;-66
2022/09/15 13:32:33;;;;;;;5.90;2.85;;;;;;;21.66;58.61;98971.94;2135184;81;27724;-67
2022/09/15 13:35:52;;;;;;;4.28;2.77;;;;;;;21.78;58.71;98973.70;2143122;81;29058;-66
2022/09/15 13:39:04;;;;;;;6.08;3.10;;;;;;;21.88;58.58;98973.98;2123277;81;31067;-64
2022/09/15 13:42:38;;;;;;;5.95;2.98;;;;;;;22.06;58.75;98973.16;2140210;81;33632;-63
2022/09/15 13:45:54;;;;;;;9.78;3.22;;;;;;;22.22;58.66;98967.22;2138540;81;30130;-64
2022/09/15 13:49:17;;;;;;;6.03;3.52;;;;;;;22.27;57.79;98961.53;2132247;80;27738;-65
2022/09/15 13:52:44;;;;;;;8.00;3.02;;;;;;;22.30;57.85;98961.17;2128383;81;29145;-64
2022/09/15 13:55:46;;;;;;;6.97;2.87;;;;;;;22.31;58.04;98964.23;2111693;80;31368;-65
2022/09/15 13:58:48;;;;;;;7.60;3.35;;;;;;;22.19;57.17;98960.23;2102900;82;34095;-72
2022/09/15 14:01:52;;;;;;;6.45;2.95;;;;;;;22.04;56.86;98968.41;2120472;81;28742;-72
2022/09/15 14:04:54;;;;;;;7.95;3.25;;;;;;;21.88;57.08;98965.28;2169476;80;27676;-69
2022/09/15 14:08:03;;;;;;;4.67;2.72;;;;;;;21.78;57.27;98964.69;2182296;81;29895;-70
2022/09/15 14:11:09;;;;;;;9.18;3.10;;;;;;;21.65;57.31;98960.70;2180545;80;31835;-71
2022/09/15 14:14:41;;;;;;;7.47;3.60;;;;;;;21.53;57.48;98962.95;2189359;80;32831;-71
2022/09/15 14:17:45;;;;;;;7.28;2.95;;;;;;;21.35;57.13;98965.11;2177321;80;30524;-69
2022/09/15 14:20:59;;;;;;;5.75;3.10;;;;;;;21.15;57.36;98971.00;2203925;80;27601;-70
2022/09/15 14:24:07;;;;;;;8.60;3.52;;;;;;;21.01;57.85;98967.66;2204689;80;28812;-69
2022/09/15 14:27:10;;;;;;;7.87;3.45;;;;;;;20.86;57.88;98972.98;2183342;80;31923;-69
2022/09/15 14:30:25;;;;;;;6.83;3.15;;;;;;;20.64;58.00;98980.87;2171641;80;34096;-69
2022/09/15 14:33:39;;;;;;;5.65;3.37;;;;;;;20.49;58.26;98978.00;2173252;80;29389;-68
2022/09/15 14:36:41;;;;;;;6.83;3.25;;;;;;;20.36;58.79;98976.33;2189135;80;27571;-69
2022/09/15 14:39:54;;;;;;;7.50;3.80;;;;;;;20.27;59.03;98977.69;2162535;80;28662;-71